createdAt,value
2018-12-25T00:00:35.242Z,3.80
2018-12-25T00:03:01.045Z,3.76
2018-12-25T00:05:26.811Z,3.71
2018-12-25T00:07:52.579Z,3.76
2018-12-25T00:10:18.336Z,3.79
2018-12-25T00:12:44.131Z,3.74
2018-12-25T00:15:09.910Z,3.71
2018-12-25T00:17:35.699Z,3.69
2018-12-25T00:20:01.472Z,3.68
2018-12-25T00:22:27.305Z,3.69
2018-12-25T00:24:53.084Z,3.73
2018-12-25T00:27:18.884Z,3.75
2018-12-25T00:29:44.661Z,3.77
2018-12-25T00:32:10.552Z,3.73
2018-12-25T00:34:36.339Z,3.76
2018-12-25T00:37:02.921Z,3.79
2018-12-25T00:39:28.730Z,3.80
2018-12-25T00:41:54.518Z,3.81
2018-12-25T00:44:20.564Z,3.86
2018-12-25T00:46:46.713Z,3.87
2018-12-25T00:49:14.897Z,3.92
2018-12-25T00:51:40.796Z,3.91
2018-12-25T00:54:06.570Z,3.91
2018-12-25T00:57:03.434Z,3.99
2018-12-25T00:59:01.180Z,4.03
2018-12-25T01:01:27.171Z,4.03
2018-12-25T01:03:53.484Z,4.04
2018-12-25T01:06:19.387Z,4.02
2018-12-25T01:08:46.164Z,4.04
2018-12-25T01:11:12.082Z,4.04
2018-12-25T01:13:41.173Z,4.02
2018-12-25T01:16:06.925Z,4.03
2018-12-25T01:18:32.726Z,4.02
2018-12-25T01:20:58.641Z,4.02
2018-12-25T01:23:26.204Z,3.96
2018-12-25T01:25:52.088Z,3.96
2018-12-25T01:28:17.825Z,3.92
2018-12-25T01:30:43.582Z,3.91
2018-12-25T01:33:10.062Z,3.86
2018-12-25T01:35:35.855Z,3.82
2018-12-25T01:38:01.627Z,3.75
2018-12-25T01:40:27.512Z,3.74
2018-12-25T01:42:53.301Z,3.75
2018-12-25T01:45:19.082Z,3.73
2018-12-25T01:47:44.843Z,3.76
2018-12-25T01:50:31.355Z,3.79
2018-12-25T01:52:57.524Z,3.75
2018-12-25T01:55:23.344Z,3.77
2018-12-25T01:57:49.127Z,3.83
2018-12-25T02:00:14.909Z,3.90
2018-12-25T02:02:40.667Z,3.93
2018-12-25T02:05:06.488Z,3.92
2018-12-25T02:07:32.263Z,3.94
2018-12-25T02:09:58.038Z,3.99
2018-12-25T02:12:23.828Z,4.02
2018-12-25T02:14:49.623Z,4.05
2018-12-25T02:17:15.391Z,4.10
2018-12-25T02:19:41.530Z,4.12
2018-12-25T02:22:07.285Z,4.14
2018-12-25T02:24:33.096Z,4.17
2018-12-25T02:26:58.882Z,4.18
2018-12-25T02:29:24.649Z,4.24
2018-12-25T02:31:50.434Z,4.33
2018-12-25T02:34:16.223Z,4.42
2018-12-25T02:36:41.980Z,4.40
2018-12-25T02:39:07.748Z,4.44
2018-12-25T02:41:33.631Z,4.51
2018-12-25T02:43:59.406Z,4.57
2018-12-25T02:46:25.205Z,4.62
2018-12-25T02:48:50.971Z,4.70
2018-12-25T02:51:16.746Z,4.71
2018-12-25T02:53:42.527Z,4.68
2018-12-25T02:56:08.315Z,4.71
2018-12-25T02:58:34.085Z,4.79
2018-12-25T03:00:59.862Z,4.82
2018-12-25T03:03:25.652Z,4.84
2018-12-25T03:05:52.369Z,4.86
2018-12-25T03:08:18.130Z,4.85
2018-12-25T03:10:44.111Z,4.86
2018-12-25T03:13:09.844Z,4.91
2018-12-25T03:15:35.649Z,4.90
2018-12-25T03:18:01.418Z,4.93
2018-12-25T03:20:47.108Z,4.92
2018-12-25T03:23:13.191Z,4.92
2018-12-25T03:25:39.026Z,4.95
2018-12-25T03:28:04.787Z,4.94
2018-12-25T03:30:30.978Z,5.01
2018-12-25T03:32:56.712Z,5.01
2018-12-25T03:35:22.488Z,5.00
2018-12-25T03:37:48.339Z,5.01
2018-12-25T03:40:14.178Z,4.98
2018-12-25T03:42:39.973Z,4.95
2018-12-25T03:45:05.749Z,4.96
2018-12-25T03:47:31.534Z,4.98
2018-12-25T03:49:57.306Z,4.97
2018-12-25T03:52:23.122Z,5.01
2018-12-25T03:54:48.876Z,5.01
2018-12-25T03:57:14.668Z,5.06
2018-12-25T03:59:40.431Z,5.08
2018-12-25T04:02:06.588Z,5.10
2018-12-25T04:04:32.454Z,5.14
2018-12-25T04:06:58.232Z,5.10
2018-12-25T04:09:24.020Z,5.03
2018-12-25T04:11:49.811Z,4.99
2018-12-25T04:14:15.594Z,4.94
2018-12-25T04:16:41.385Z,4.93
2018-12-25T04:19:07.164Z,4.95
2018-12-25T04:21:32.942Z,4.95
2018-12-25T04:23:58.702Z,4.96
2018-12-25T04:26:24.487Z,4.98
2018-12-25T04:28:50.269Z,4.92
2018-12-25T04:31:16.048Z,4.94
2018-12-25T04:33:41.842Z,4.94
2018-12-25T04:36:07.622Z,4.93
2018-12-25T04:38:33.417Z,4.90
2018-12-25T04:40:59.189Z,4.90
2018-12-25T04:43:24.966Z,4.91
2018-12-25T04:45:50.733Z,4.95
2018-12-25T04:48:16.507Z,4.97
2018-12-25T04:50:42.271Z,4.97
2018-12-25T04:53:08.057Z,4.96
2018-12-25T04:55:33.812Z,4.97
2018-12-25T04:57:59.583Z,5.00
2018-12-25T05:00:25.334Z,5.01
2018-12-25T05:02:51.105Z,5.01
2018-12-25T05:05:16.864Z,5.01
2018-12-25T05:07:42.650Z,5.05
2018-12-25T05:10:08.402Z,5.04
2018-12-25T05:12:34.187Z,5.03
2018-12-25T05:14:59.938Z,5.01
2018-12-25T05:17:25.714Z,5.04
2018-12-25T05:19:51.481Z,5.07
2018-12-25T05:22:17.256Z,5.09
2018-12-25T05:24:43.015Z,5.07
2018-12-25T05:27:08.780Z,5.07
2018-12-25T05:29:34.556Z,5.09
2018-12-25T05:32:00.317Z,5.08
2018-12-25T05:34:26.084Z,5.10
2018-12-25T05:36:51.851Z,5.11
2018-12-25T05:39:17.630Z,5.12
2018-12-25T05:41:43.391Z,5.02
2018-12-25T05:44:09.163Z,5.02
2018-12-25T05:46:34.925Z,5.00
2018-12-25T05:49:00.700Z,5.04
2018-12-25T05:51:26.456Z,5.01
2018-12-25T05:53:52.247Z,5.02
2018-12-25T05:56:18.015Z,4.99
2018-12-25T05:58:43.781Z,5.01
2018-12-25T06:01:09.540Z,5.02
2018-12-25T06:03:35.321Z,5.01
2018-12-25T06:06:01.089Z,5.03
2018-12-25T06:08:26.860Z,5.06
2018-12-25T06:10:52.638Z,5.05
2018-12-25T06:13:18.405Z,5.04
2018-12-25T06:15:44.185Z,5.01
2018-12-25T06:18:09.953Z,5.01
2018-12-25T06:20:35.727Z,5.03
2018-12-25T06:23:01.483Z,5.11
2018-12-25T06:25:27.255Z,5.14
2018-12-25T06:27:53.013Z,5.16
2018-12-25T06:30:18.795Z,5.17
2018-12-25T06:32:44.553Z,5.23
2018-12-25T06:35:10.321Z,5.21
2018-12-25T06:37:36.073Z,5.13
2018-12-25T06:42:56.101Z,5.09
2018-12-25T06:45:21.886Z,5.07
2018-12-25T06:47:47.641Z,5.07
2018-12-25T06:50:13.446Z,5.08
2018-12-25T06:52:39.201Z,5.09
2018-12-25T06:55:04.968Z,5.14
2018-12-25T06:57:30.728Z,5.15
2018-12-25T06:59:56.506Z,5.18
2018-12-25T07:02:22.274Z,5.20
2018-12-25T07:04:48.154Z,5.21
2018-12-25T07:07:13.923Z,5.21
2018-12-25T07:09:39.685Z,5.20
2018-12-25T07:12:05.474Z,5.21
2018-12-25T07:14:31.220Z,5.26
2018-12-25T07:16:56.988Z,5.27
2018-12-25T07:19:22.741Z,5.30
2018-12-25T07:21:48.512Z,5.26
2018-12-25T07:24:14.275Z,5.26
2018-12-25T07:26:40.050Z,5.27
2018-12-25T07:29:05.819Z,5.26
2018-12-25T07:31:31.595Z,5.24
2018-12-25T07:33:57.353Z,5.27
2018-12-25T07:36:23.136Z,5.24
2018-12-25T07:38:48.896Z,5.25
2018-12-25T07:41:14.665Z,5.23
2018-12-25T07:43:40.431Z,5.27
2018-12-25T07:46:06.198Z,5.23
2018-12-25T07:48:31.965Z,5.28
2018-12-25T07:50:57.746Z,5.29
2018-12-25T07:53:23.538Z,5.31
2018-12-25T07:55:49.306Z,5.26
2018-12-25T07:58:15.075Z,5.29
2018-12-25T08:00:40.844Z,5.31
2018-12-25T08:03:06.594Z,5.31
2018-12-25T08:05:32.345Z,5.34
2018-12-25T08:07:58.113Z,5.36
2018-12-25T08:10:23.878Z,5.36
2018-12-25T08:12:49.661Z,5.37
2018-12-25T08:15:15.426Z,5.44
2018-12-25T08:17:41.200Z,5.45
2018-12-25T08:20:06.960Z,5.46
2018-12-25T08:22:32.744Z,5.47
2018-12-25T08:24:58.504Z,5.53
2018-12-25T08:27:24.286Z,5.53
2018-12-25T08:29:50.050Z,5.56
2018-12-25T08:32:15.831Z,5.56
2018-12-25T08:34:41.587Z,5.58
2018-12-25T08:37:07.362Z,5.58
2018-12-25T08:39:33.121Z,5.63
2018-12-25T08:41:58.917Z,5.66
2018-12-25T08:44:24.670Z,5.63
2018-12-25T08:46:50.448Z,5.64
2018-12-25T08:49:16.209Z,5.67
2018-12-25T08:51:42.004Z,5.74
2018-12-25T08:54:07.783Z,5.74
2018-12-25T08:56:33.545Z,5.74
2018-12-25T08:58:59.319Z,5.73
2018-12-25T09:01:25.073Z,5.74
2018-12-25T09:03:50.845Z,5.74
2018-12-25T09:06:16.603Z,5.76
2018-12-25T09:08:42.371Z,5.76
2018-12-25T09:11:08.127Z,5.77
2018-12-25T09:13:33.894Z,5.79
2018-12-25T09:15:59.680Z,5.78
2018-12-25T09:18:25.456Z,5.81
2018-12-25T09:20:51.213Z,5.86
2018-12-25T09:23:16.991Z,5.94
2018-12-25T09:25:42.777Z,5.97
2018-12-25T09:28:08.555Z,5.97
2018-12-25T09:30:34.323Z,6.01
2018-12-25T09:33:00.109Z,6.03
2018-12-25T09:35:25.865Z,6.05
2018-12-25T09:37:51.636Z,6.08
2018-12-25T09:40:17.393Z,6.08
2018-12-25T09:42:43.170Z,6.06
2018-12-25T09:45:08.928Z,6.08
2018-12-25T09:47:34.682Z,6.11
2018-12-25T09:50:00.461Z,6.12
2018-12-25T09:52:26.225Z,6.12
2018-12-25T09:54:52.019Z,6.13
2018-12-25T09:57:17.782Z,6.15
2018-12-25T09:59:43.652Z,6.14
2018-12-25T10:02:09.424Z,6.14
2018-12-25T10:04:35.190Z,6.13
2018-12-25T10:07:00.949Z,6.19
2018-12-25T10:09:26.723Z,6.17
2018-12-25T10:11:52.479Z,6.18
2018-12-25T10:14:18.253Z,6.16
2018-12-25T10:16:44.009Z,6.17
2018-12-25T10:19:09.785Z,6.18
2018-12-25T10:21:35.539Z,6.22
2018-12-25T10:24:01.325Z,6.20
2018-12-25T10:26:27.082Z,6.20
2018-12-25T10:28:52.860Z,6.22
2018-12-25T10:31:18.627Z,6.25
2018-12-25T10:33:44.407Z,6.23
2018-12-25T10:36:10.165Z,6.26
2018-12-25T10:38:35.939Z,6.36
2018-12-25T10:41:01.699Z,6.31
2018-12-25T10:43:27.457Z,6.31
2018-12-25T10:45:53.228Z,6.36
2018-12-25T10:48:18.981Z,6.36
2018-12-25T10:50:44.759Z,6.36
2018-12-25T10:53:10.539Z,6.38
2018-12-25T10:55:36.326Z,6.33
2018-12-25T10:58:02.083Z,6.34
2018-12-25T11:01:09.531Z,6.32
2018-12-25T11:03:35.299Z,6.36
2018-12-25T11:06:01.072Z,6.42
2018-12-25T11:08:26.828Z,6.46
2018-12-25T11:10:52.590Z,6.44
2018-12-25T11:13:18.351Z,6.44
2018-12-25T11:15:44.138Z,6.45
2018-12-25T11:18:10.143Z,6.47
2018-12-25T11:20:35.921Z,6.43
2018-12-25T11:23:01.680Z,6.42
2018-12-25T11:25:27.454Z,6.40
2018-12-25T11:27:53.212Z,6.39
2018-12-25T11:30:18.985Z,6.39
2018-12-25T11:32:44.859Z,6.42
2018-12-25T11:35:10.631Z,6.43
2018-12-25T11:37:36.392Z,6.45
2018-12-25T11:40:02.170Z,6.44
2018-12-25T11:42:27.927Z,6.42
2018-12-25T11:44:53.695Z,6.40
2018-12-25T11:47:19.467Z,6.42
2018-12-25T11:49:45.240Z,6.45
2018-12-25T11:52:10.990Z,6.47
2018-12-25T11:54:36.796Z,6.45
2018-12-25T11:57:02.591Z,6.41
2018-12-25T11:59:28.369Z,6.40
2018-12-25T12:01:54.151Z,6.47
2018-12-25T12:04:19.918Z,6.41
2018-12-25T12:06:45.694Z,6.45
2018-12-25T12:09:11.454Z,6.42
2018-12-25T12:11:37.222Z,6.37
2018-12-25T12:14:03.086Z,6.40
2018-12-25T12:16:28.862Z,6.44
2018-12-25T12:18:54.618Z,6.41
2018-12-25T12:21:20.386Z,6.39
2018-12-25T12:23:46.157Z,6.38
2018-12-25T12:26:11.923Z,6.40
2018-12-25T12:29:19.388Z,6.37
2018-12-25T12:31:45.161Z,6.34
2018-12-25T12:34:10.914Z,6.38
2018-12-25T12:36:36.686Z,6.42
2018-12-25T12:42:29.525Z,6.39
2018-12-25T12:44:55.578Z,6.37
2018-12-25T12:47:21.349Z,6.40
2018-12-25T12:49:47.179Z,6.38
2018-12-25T12:52:13.009Z,6.37
2018-12-25T12:54:38.767Z,6.40
2018-12-25T12:59:58.748Z,6.36
2018-12-25T13:02:24.526Z,6.37
2018-12-25T13:04:50.280Z,6.36
2018-12-25T13:07:16.056Z,6.38
2018-12-25T13:09:41.813Z,6.00
2018-12-25T13:12:07.608Z,6.35
2018-12-25T13:14:33.368Z,6.37
2018-12-25T13:16:59.135Z,6.37
2018-12-25T13:19:24.889Z,6.33
2018-12-25T13:21:50.661Z,6.32
2018-12-25T13:24:16.481Z,6.33
2018-12-25T13:26:42.206Z,6.33
2018-12-25T13:29:08.810Z,6.31
2018-12-25T13:31:35.158Z,6.32
2018-12-25T13:34:00.987Z,5.85
2018-12-25T13:36:26.758Z,6.32
2018-12-25T13:38:52.519Z,6.29
2018-12-25T13:41:18.289Z,6.25
2018-12-25T13:46:52.049Z,6.24
2018-12-25T13:49:19.436Z,6.25
2018-12-25T13:51:45.220Z,6.24
2018-12-25T13:54:24.070Z,6.21
2018-12-25T13:56:49.860Z,6.21
2018-12-25T13:59:15.610Z,6.21
2018-12-25T14:01:41.394Z,6.22
2018-12-25T14:04:07.153Z,6.22
2018-12-25T14:06:32.928Z,6.20
2018-12-25T14:08:58.694Z,6.16
2018-12-25T14:11:24.459Z,6.15
2018-12-25T14:13:50.234Z,6.18
2018-12-25T14:16:15.995Z,6.14
2018-12-25T14:18:41.760Z,6.13
2018-12-25T14:21:07.530Z,6.10
2018-12-25T14:23:33.304Z,6.09
2018-12-25T14:25:59.067Z,6.08
2018-12-25T14:28:24.848Z,6.07
2018-12-25T14:30:50.614Z,6.07
2018-12-25T14:33:16.390Z,6.07
2018-12-25T14:35:42.144Z,6.09
2018-12-25T14:38:07.912Z,6.04
2018-12-25T14:40:33.672Z,6.04
2018-12-25T14:42:59.435Z,6.06
2018-12-25T14:45:25.202Z,6.01
2018-12-25T14:47:50.973Z,6.01
2018-12-25T14:50:16.734Z,6.02
2018-12-25T14:52:42.503Z,6.00
2018-12-25T14:55:08.285Z,5.97
2018-12-25T14:57:34.051Z,5.98
2018-12-25T14:59:59.807Z,5.95
2018-12-25T15:02:25.571Z,5.93
2018-12-25T15:04:51.336Z,5.93
2018-12-25T15:07:17.134Z,5.91
2018-12-25T15:09:42.999Z,5.91
2018-12-25T15:12:08.767Z,5.89
2018-12-25T15:14:34.535Z,5.88
2018-12-25T15:17:00.292Z,5.88
2018-12-25T15:19:26.060Z,5.93
2018-12-25T15:21:51.829Z,5.95
2018-12-25T15:24:17.600Z,5.93
2018-12-25T15:26:43.364Z,5.89
2018-12-25T15:29:09.139Z,5.93
2018-12-25T15:31:34.899Z,5.91
2018-12-25T15:34:00.665Z,5.88
2018-12-25T15:36:26.436Z,5.91
2018-12-25T15:38:52.206Z,5.88
2018-12-25T15:41:17.970Z,5.83
2018-12-25T15:43:43.749Z,5.86
2018-12-25T15:46:09.523Z,5.81
2018-12-25T15:48:35.289Z,5.74
2018-12-25T15:51:01.050Z,5.74
2018-12-25T15:53:26.831Z,5.73
2018-12-25T15:55:52.593Z,5.74
2018-12-25T15:58:18.358Z,5.74
2018-12-25T16:00:44.135Z,5.71
2018-12-25T16:03:09.885Z,5.69
2018-12-25T16:05:35.664Z,5.71
2018-12-25T16:08:01.429Z,5.72
2018-12-25T16:10:27.206Z,5.71
2018-12-25T16:12:52.972Z,5.72
2018-12-25T16:15:18.746Z,5.67
2018-12-25T16:17:44.502Z,5.73
2018-12-25T16:20:10.369Z,5.74
2018-12-25T16:22:36.147Z,5.74
2018-12-25T16:25:01.933Z,5.72
2018-12-25T16:27:27.687Z,5.71
2018-12-25T16:29:53.450Z,5.73
2018-12-25T16:32:19.236Z,5.71
2018-12-25T16:34:44.985Z,5.73
2018-12-25T16:37:10.758Z,5.73
2018-12-25T16:39:36.516Z,5.73
2018-12-25T16:42:02.288Z,5.74
2018-12-25T16:44:28.065Z,5.71
2018-12-25T16:46:53.828Z,5.72
2018-12-25T16:49:19.577Z,5.72
2018-12-25T16:51:45.368Z,5.72
2018-12-25T16:54:11.135Z,5.73
2018-12-25T16:56:36.909Z,5.74
2018-12-25T16:59:02.675Z,5.69
2018-12-25T17:01:28.460Z,5.77
2018-12-25T17:03:54.228Z,5.75
2018-12-25T17:06:20.044Z,5.75
2018-12-25T17:08:45.794Z,5.67
2018-12-25T17:11:11.575Z,5.66
2018-12-25T17:13:37.354Z,5.57
2018-12-25T17:16:03.109Z,5.67
2018-12-25T17:18:28.882Z,5.72
2018-12-25T17:20:54.715Z,5.73
2018-12-25T17:23:20.520Z,5.72
2018-12-25T17:26:06.164Z,5.70
2018-12-25T17:28:31.936Z,5.70
2018-12-25T17:30:57.687Z,5.69
2018-12-25T17:33:23.460Z,5.70
2018-12-25T17:35:49.221Z,5.74
2018-12-25T17:38:14.999Z,5.74
2018-12-25T17:40:40.779Z,5.74
2018-12-25T17:43:26.439Z,5.79
2018-12-25T17:45:52.199Z,5.79
2018-12-25T17:48:17.988Z,5.84
2018-12-25T17:50:43.748Z,5.85
2018-12-25T17:53:09.520Z,5.87
2018-12-25T17:55:35.295Z,5.87
2018-12-25T17:58:01.082Z,5.86
2018-12-25T18:00:26.854Z,5.89
2018-12-25T18:02:52.618Z,5.93
2018-12-25T18:05:18.404Z,5.95
2018-12-25T18:07:44.258Z,5.94
2018-12-25T18:10:10.049Z,5.99
2018-12-25T18:12:35.814Z,5.91
2018-12-25T18:15:01.587Z,5.90
2018-12-25T18:17:27.345Z,5.89
2018-12-25T18:19:53.116Z,5.87
2018-12-25T18:22:18.869Z,5.90
2018-12-25T18:24:44.637Z,5.89
2018-12-25T18:27:10.398Z,5.85
2018-12-25T18:29:36.245Z,5.91
2018-12-25T18:32:02.113Z,5.89
2018-12-25T18:34:27.914Z,5.87
2018-12-25T18:36:53.681Z,5.86
2018-12-25T18:39:19.496Z,5.88
2018-12-25T18:41:45.255Z,5.87
2018-12-25T18:44:11.069Z,5.86
2018-12-25T18:46:36.823Z,5.85
2018-12-25T18:49:02.573Z,5.90
2018-12-25T18:51:28.349Z,5.87
2018-12-25T18:53:54.113Z,5.89
2018-12-25T18:56:19.902Z,5.92
2018-12-25T18:58:45.771Z,5.91
2018-12-25T19:01:11.543Z,5.89
2018-12-25T19:03:37.300Z,5.82
2018-12-25T19:06:03.070Z,5.78
2018-12-25T19:08:28.826Z,5.77
2018-12-25T19:10:54.595Z,5.79
2018-12-25T19:13:20.349Z,5.86
2018-12-25T19:15:46.220Z,5.86
2018-12-25T19:18:11.981Z,5.87
2018-12-25T19:20:37.763Z,5.87
2018-12-25T19:23:23.407Z,5.84
2018-12-25T19:25:49.182Z,5.84
2018-12-25T19:28:14.945Z,5.89
2018-12-25T19:30:40.716Z,5.90
2018-12-25T19:33:06.487Z,5.87
2018-12-25T19:35:32.248Z,5.90
2018-12-25T19:37:58.026Z,5.87
2018-12-25T19:40:23.795Z,5.85
2018-12-25T19:42:49.570Z,5.83
2018-12-25T19:45:15.438Z,5.78
2018-12-25T19:47:41.242Z,5.80
2018-12-25T19:50:06.993Z,5.80
2018-12-25T19:52:32.782Z,5.79
2018-12-25T19:54:58.551Z,5.81
2018-12-25T19:57:24.330Z,5.81
2018-12-25T19:59:50.089Z,5.82
2018-12-25T20:02:15.865Z,5.77
2018-12-25T20:08:34.712Z,5.78
2018-12-25T20:12:00.140Z,5.74
2018-12-25T20:15:05.662Z,5.73
2018-12-25T20:18:11.211Z,5.75
2018-12-25T20:21:36.622Z,5.74
2018-12-25T20:24:44.062Z,5.74
2018-12-25T20:28:13.469Z,5.74
2018-12-25T20:38:01.625Z,5.76
2018-12-25T20:41:07.153Z,5.77
2018-12-25T20:44:12.697Z,5.79
2018-12-25T20:47:18.226Z,5.76
2018-12-25T20:53:38.955Z,5.78
2018-12-25T20:57:04.387Z,5.83
2018-12-25T21:00:09.946Z,5.83
2018-12-25T21:03:15.454Z,5.82
2018-12-25T21:06:21.010Z,5.80
2018-12-25T21:09:26.553Z,5.80
2018-12-25T21:16:01.061Z,5.82
2018-12-25T21:19:08.482Z,5.78
2018-12-25T21:22:33.915Z,5.77
2018-12-25T21:25:59.367Z,5.82
2018-12-25T21:29:06.818Z,5.80
2018-12-25T21:35:27.780Z,5.88
2018-12-25T21:37:53.632Z,5.87
2018-12-25T21:40:19.499Z,5.92
2018-12-25T21:42:45.261Z,5.91
2018-12-25T21:45:11.182Z,5.91
2018-12-25T21:51:04.032Z,5.92
2018-12-25T21:53:29.881Z,5.98
2018-12-25T21:55:55.668Z,5.99
2018-12-25T21:58:21.543Z,5.99
2018-12-25T22:00:47.314Z,5.99
2018-12-25T22:03:13.074Z,6.00
2018-12-25T22:05:38.857Z,5.96
2018-12-25T22:08:04.625Z,5.95
2018-12-25T22:10:30.391Z,5.93
2018-12-25T22:12:56.167Z,5.93
2018-12-25T22:15:21.972Z,5.92
2018-12-25T22:17:47.703Z,5.92
2018-12-25T22:20:33.342Z,5.91
2018-12-25T22:22:59.124Z,5.87
2018-12-25T22:25:27.336Z,5.84
2018-12-25T22:27:52.557Z,5.83
2018-12-25T22:30:18.316Z,5.81
2018-12-25T22:32:44.085Z,5.77
2018-12-25T22:35:09.843Z,5.78
2018-12-25T22:37:35.627Z,5.72
2018-12-25T22:43:28.559Z,5.67
2018-12-25T22:45:54.314Z,5.66
2018-12-25T22:48:20.544Z,5.65
2018-12-25T22:50:46.324Z,5.62
2018-12-25T22:53:19.353Z,5.60
2018-12-25T22:55:45.122Z,5.59
2018-12-25T22:58:10.893Z,5.55
2018-12-25T23:00:36.759Z,5.55
2018-12-25T23:03:02.540Z,5.52
2018-12-25T23:08:35.552Z,5.44
2018-12-25T23:11:01.312Z,5.49
2018-12-25T23:13:27.087Z,5.53
2018-12-25T23:15:52.853Z,5.55
2018-12-25T23:18:18.647Z,5.51
2018-12-25T23:20:44.401Z,5.50
2018-12-25T23:23:10.171Z,5.54
2018-12-25T23:25:44.447Z,5.55
2018-12-25T23:28:03.609Z,5.55
2018-12-25T23:30:29.375Z,5.56
2018-12-25T23:32:55.137Z,5.53
2018-12-25T23:35:20.910Z,5.56
2018-12-25T23:37:46.755Z,5.57
2018-12-25T23:40:12.502Z,5.56
2018-12-25T23:42:38.255Z,5.58
2018-12-25T23:45:45.702Z,5.57
2018-12-25T23:48:11.467Z,5.58
2018-12-25T23:51:18.919Z,5.60
2018-12-25T23:53:44.692Z,5.59
2018-12-25T23:56:10.464Z,5.59
2018-12-25T23:58:36.230Z,5.65
